Airfield :
LOGIN :

Register | Disclaimer

   EN    FR    IT 

 










Legend :    VFR   Marginal VFR   IFR   Intensive IFR   Very Intensive IFR
Visi :
Ceiling :
>= 8 km
>= 3000ft
5 to 8 km
1000 to 3000 ft
1500m to 5 km
500 to 1000 ft
800 to 1500m
200 to 500 ft
< 800m
< 200 ft
Symbols :   Thunderstorms  Fog  Heavy snow  Heavy precipitations  Wind > 20 kt
SIGMETs :     Misc.  Thunderstorms  Icing  Turbulence  Mountain Waves  Volcanic Ashes






- Airport Elevation : 306 ft
- IATA code : EMA


EGNX - Nottingham East Midlands

CURRENT METAR :
  • 201820Z 01008KT 340V040 9999 FEW008 SCT012 BKN020 10/09 Q1015

EXPIRED METARs :
  • 201750Z 01007KT 330V040 9999 FEW008 BKN011 10/09 Q1014
  • 201720Z 32006KT 290V360 6000 -SHRA FEW012 BKN013 09/09 Q1014 RESHRA
  • 201650Z 34006KT 6000 -SHRA BKN012 BKN023 10/09 Q1014
  • 201620Z 34005KT 300V360 8000 -SHRA BKN011 BKN023 10/09 Q1014
  • 201550Z 35007KT 9999 4000N VCSH BKN015 10/08 Q1013

TAF TAF EGNX
Valid from the 20 at 18:00 until the 21 at 18:00 UTC


201702Z 2018/2118 35010KT 9999 SCT014
PROB30
TEMPO 2018/2021 8000 -SHRA BKN014
TEMPO 2021/2110 8000 BKN009
BECMG 2115/2118 29005KT
ATIS : +44 1332 852 852 (ext 3201)



MET'MAP, your aeronautical weather chart ! - Copyright ORBIFLY December 2007 - Disclaimer

ORBIFLY MET'MAP TEAM :

Programming & Development : Alexandra Zaïnal
Concept & Development : Baudouin d'Aumeries
Co-Development & Prog : Marc-Olivier Méhu
Technical & hardware support : Manuel Goepfert

Contact : metmap@orbifly.com




SOURCES & CREDITS :

   NOAA